sensor_id;sensor_type;location;lat;lon;timestamp;pressure;altitude;pressure_sealevel;temperature
28305;BMP280;15569;42.652;23.040;2022-10-04T00:01:45;93241.44;;;12.66
28305;BMP280;15569;42.652;23.040;2022-10-04T00:04:28;93241.66;;;12.70
28305;BMP280;15569;42.652;23.040;2022-10-04T00:07:12;93243.25;;;12.75
28305;BMP280;15569;42.652;23.040;2022-10-04T00:12:37;93237.06;;;12.75
28305;BMP280;15569;42.652;23.040;2022-10-04T00:15:24;93245.31;;;12.61
28305;BMP280;15569;42.652;23.040;2022-10-04T00:18:06;93235.16;;;12.77
28305;BMP280;15569;42.652;23.040;2022-10-04T00:26:00;93229.13;;;12.65
28305;BMP280;15569;42.652;23.040;2022-10-04T00:28:30;93234.69;;;12.67
28305;BMP280;15569;42.652;23.040;2022-10-04T00:31:20;93229.09;;;12.79
28305;BMP280;15569;42.652;23.040;2022-10-04T00:36:43;93228.81;;;12.59
28305;BMP280;15569;42.652;23.040;2022-10-04T00:47:16;93218.03;;;12.61
28305;BMP280;15569;42.652;23.040;2022-10-04T00:49:45;93222.06;;;12.60
28305;BMP280;15569;42.652;23.040;2022-10-04T00:52:20;93214.25;;;12.39
28305;BMP280;15569;42.652;23.040;2022-10-04T00:54:53;93227.19;;;12.52
28305;BMP280;15569;42.652;23.040;2022-10-04T00:57:27;93219.22;;;12.42
28305;BMP280;15569;42.652;23.040;2022-10-04T00:59:57;93212.19;;;12.37
28305;BMP280;15569;42.652;23.040;2022-10-04T01:02:51;93204.78;;;12.40
28305;BMP280;15569;42.652;23.040;2022-10-04T01:05:25;93227.47;;;12.15
28305;BMP280;15569;42.652;23.040;2022-10-04T01:07:56;93212.09;;;12.22
28305;BMP280;15569;42.652;23.040;2022-10-04T01:10:33;93208.81;;;12.39
28305;BMP280;15569;42.652;23.040;2022-10-04T01:13:21;93206.06;;;12.52
28305;BMP280;15569;42.652;23.040;2022-10-04T01:18:33;93222.69;;;12.58
28305;BMP280;15569;42.652;23.040;2022-10-04T01:21:07;93210.19;;;12.53
28305;BMP280;15569;42.652;23.040;2022-10-04T01:23:41;93210.38;;;12.28
28305;BMP280;15569;42.652;23.040;2022-10-04T01:31:34;93213.19;;;12.30
28305;BMP280;15569;42.652;23.040;2022-10-04T01:34:01;93196.22;;;11.89
28305;BMP280;15569;42.652;23.040;2022-10-04T01:36:27;93198.09;;;12.14
28305;BMP280;15569;42.652;23.040;2022-10-04T01:38:54;93204.56;;;12.07
28305;BMP280;15569;42.652;23.040;2022-10-04T01:41:37;93190.66;;;11.87
28305;BMP280;15569;42.652;23.040;2022-10-04T01:44:05;93181.72;;;11.71
28305;BMP280;15569;42.652;23.040;2022-10-04T01:46:35;93196.84;;;11.33
28305;BMP280;15569;42.652;23.040;2022-10-04T01:49:09;93215.38;;;11.23
28305;BMP280;15569;42.652;23.040;2022-10-04T01:51:47;93195.47;;;11.07
28305;BMP280;15569;42.652;23.040;2022-10-04T01:54:19;93202.56;;;11.53
28305;BMP280;15569;42.652;23.040;2022-10-04T01:59:24;93187.16;;;11.71
28305;BMP280;15569;42.652;23.040;2022-10-04T02:02:01;93176.97;;;11.58
28305;BMP280;15569;42.652;23.040;2022-10-04T02:04:32;93192.41;;;11.80
28305;BMP280;15569;42.652;23.040;2022-10-04T02:06:59;93188.03;;;11.75
28305;BMP280;15569;42.652;23.040;2022-10-04T02:09:33;93199.84;;;11.94
28305;BMP280;15569;42.652;23.040;2022-10-04T02:12:00;93194.69;;;12.00
28305;BMP280;15569;42.652;23.040;2022-10-04T02:14:28;93196.41;;;11.93
28305;BMP280;15569;42.652;23.040;2022-10-04T02:16:59;93192.66;;;12.00
28305;BMP280;15569;42.652;23.040;2022-10-04T02:19:32;93201.25;;;11.95
28305;BMP280;15569;42.652;23.040;2022-10-04T02:22:02;93198.72;;;11.99
28305;BMP280;15569;42.652;23.040;2022-10-04T02:24:32;93203.38;;;11.96
28305;BMP280;15569;42.652;23.040;2022-10-04T02:26:59;93201.66;;;12.03
28305;BMP280;15569;42.652;23.040;2022-10-04T02:29:25;93197.00;;;11.92
28305;BMP280;15569;42.652;23.040;2022-10-04T02:31:51;93189.66;;;11.94
28305;BMP280;15569;42.652;23.040;2022-10-04T02:34:36;93198.84;;;11.73
28305;BMP280;15569;42.652;23.040;2022-10-04T02:37:03;93209.44;;;11.67
28305;BMP280;15569;42.652;23.040;2022-10-04T02:45:20;93207.63;;;11.58
28305;BMP280;15569;42.652;23.040;2022-10-04T02:47:52;93208.94;;;11.30
28305;BMP280;15569;42.652;23.040;2022-10-04T02:50:43;93215.16;;;11.46
28305;BMP280;15569;42.652;23.040;2022-10-04T02:53:17;93221.72;;;11.41
28305;BMP280;15569;42.652;23.040;2022-10-04T02:55:44;93203.66;;;11.34
28305;BMP280;15569;42.652;23.040;2022-10-04T02:58:13;93213.09;;;11.45
28305;BMP280;15569;42.652;23.040;2022-10-04T03:00:48;93222.03;;;11.47
28305;BMP280;15569;42.652;23.040;2022-10-04T03:03:45;93222.41;;;11.28
28305;BMP280;15569;42.652;23.040;2022-10-04T03:06:15;93228.75;;;11.19
28305;BMP280;15569;42.652;23.040;2022-10-04T03:11:08;93229.50;;;11.08
28305;BMP280;15569;42.652;23.040;2022-10-04T03:13:36;93230.00;;;10.91
28305;BMP280;15569;42.652;23.040;2022-10-04T03:16:03;93227.28;;;10.91
28305;BMP280;15569;42.652;23.040;2022-10-04T03:18:29;93236.34;;;10.95
28305;BMP280;15569;42.652;23.040;2022-10-04T03:20:56;93225.97;;;10.92
28305;BMP280;15569;42.652;23.040;2022-10-04T03:23:21;93235.75;;;10.97
28305;BMP280;15569;42.652;23.040;2022-10-04T03:25:52;93236.47;;;10.97
28305;BMP280;15569;42.652;23.040;2022-10-04T03:28:20;93240.94;;;10.79
28305;BMP280;15569;42.652;23.040;2022-10-04T03:30:46;93227.19;;;10.77
28305;BMP280;15569;42.652;23.040;2022-10-04T03:33:18;93224.69;;;10.68
28305;BMP280;15569;42.652;23.040;2022-10-04T03:35:46;93250.75;;;10.73
28305;BMP280;15569;42.652;23.040;2022-10-04T03:38:13;93238.53;;;10.60
28305;BMP280;15569;42.652;23.040;2022-10-04T03:40:43;93252.72;;;10.59
28305;BMP280;15569;42.652;23.040;2022-10-04T03:43:13;93255.59;;;10.49
28305;BMP280;15569;42.652;23.040;2022-10-04T03:45:39;93251.88;;;10.56
28305;BMP280;15569;42.652;23.040;2022-10-04T03:48:08;93250.63;;;10.46
28305;BMP280;15569;42.652;23.040;2022-10-04T03:50:45;93250.91;;;10.26
28305;BMP280;15569;42.652;23.040;2022-10-04T03:53:44;93253.94;;;10.44
28305;BMP280;15569;42.652;23.040;2022-10-04T03:56:15;93259.16;;;10.40
28305;BMP280;15569;42.652;23.040;2022-10-04T03:58:41;93257.50;;;10.35
28305;BMP280;15569;42.652;23.040;2022-10-04T04:07:19;93256.16;;;10.48
28305;BMP280;15569;42.652;23.040;2022-10-04T04:09:44;93255.13;;;10.41
28305;BMP280;15569;42.652;23.040;2022-10-04T04:12:16;93246.75;;;10.37
28305;BMP280;15569;42.652;23.040;2022-10-04T04:14:46;93252.91;;;10.38
28305;BMP280;15569;42.652;23.040;2022-10-04T04:17:34;93258.81;;;10.34
28305;BMP280;15569;42.652;23.040;2022-10-04T04:20:03;93254.34;;;10.27
28305;BMP280;15569;42.652;23.040;2022-10-04T04:22:29;93259.06;;;10.26
28305;BMP280;15569;42.652;23.040;2022-10-04T04:25:07;93245.13;;;10.20
28305;BMP280;15569;42.652;23.040;2022-10-04T04:27:37;93259.28;;;10.30
28305;BMP280;15569;42.652;23.040;2022-10-04T04:30:05;93263.22;;;10.27
28305;BMP280;15569;42.652;23.040;2022-10-04T04:32:37;93269.72;;;10.22
28305;BMP280;15569;42.652;23.040;2022-10-04T04:35:05;93262.50;;;10.27
28305;BMP280;15569;42.652;23.040;2022-10-04T04:37:36;93267.72;;;10.23
28305;BMP280;15569;42.652;23.040;2022-10-04T04:40:20;93280.25;;;10.16
28305;BMP280;15569;42.652;23.040;2022-10-04T04:42:47;93269.72;;;9.99
28305;BMP280;15569;42.652;23.040;2022-10-04T04:45:19;93266.31;;;10.10
28305;BMP280;15569;42.652;23.040;2022-10-04T04:47:48;93281.53;;;10.15
28305;BMP280;15569;42.652;23.040;2022-10-04T04:50:19;93278.94;;;10.06
28305;BMP280;15569;42.652;23.040;2022-10-04T04:53:32;93275.66;;;10.07
28305;BMP280;15569;42.652;23.040;2022-10-04T04:55:36;93281.16;;;10.21
28305;BMP280;15569;42.652;23.040;2022-10-04T04:58:03;93284.94;;;10.27
28305;BMP280;15569;42.652;23.040;2022-10-04T05:00:31;93282.69;;;10.12
28305;BMP280;15569;42.652;23.040;2022-10-04T05:03:03;93289.78;;;10.17
28305;BMP280;15569;42.652;23.040;2022-10-04T05:05:29;93284.38;;;10.17
28305;BMP280;15569;42.652;23.040;2022-10-04T05:10:46;93294.16;;;10.34
28305;BMP280;15569;42.652;23.040;2022-10-04T05:13:14;93286.44;;;10.42
28305;BMP280;15569;42.652;23.040;2022-10-04T05:15:41;93290.63;;;10.20
28305;BMP280;15569;42.652;23.040;2022-10-04T05:18:25;93286.72;;;10.35
28305;BMP280;15569;42.652;23.040;2022-10-04T05:20:53;93288.34;;;10.40
28305;BMP280;15569;42.652;23.040;2022-10-04T05:23:19;93296.56;;;10.65
28305;BMP280;15569;42.652;23.040;2022-10-04T05:25:45;93307.88;;;10.73
28305;BMP280;15569;42.652;23.040;2022-10-04T05:28:12;93291.28;;;10.80
28305;BMP280;15569;42.652;23.040;2022-10-04T05:33:49;93305.69;;;11.08
28305;BMP280;15569;42.652;23.040;2022-10-04T05:41:56;93325.72;;;11.65
28305;BMP280;15569;42.652;23.040;2022-10-04T05:44:30;93306.03;;;11.53
28305;BMP280;15569;42.652;23.040;2022-10-04T05:47:00;93304.34;;;11.59
28305;BMP280;15569;42.652;23.040;2022-10-04T05:49:33;93314.19;;;11.53
28305;BMP280;15569;42.652;23.040;2022-10-04T05:52:04;93323.72;;;11.65
28305;BMP280;15569;42.652;23.040;2022-10-04T05:54:34;93326.03;;;11.71
28305;BMP280;15569;42.652;23.040;2022-10-04T06:00:09;93330.44;;;11.51
28305;BMP280;15569;42.652;23.040;2022-10-04T06:05:50;93333.22;;;11.92
28305;BMP280;15569;42.652;23.040;2022-10-04T06:11:40;93326.56;;;12.22
28305;BMP280;15569;42.652;23.040;2022-10-04T06:14:28;93343.19;;;12.55
28305;BMP280;15569;42.652;23.040;2022-10-04T06:22:42;93358.47;;;13.03
28305;BMP280;15569;42.652;23.040;2022-10-04T06:25:18;93343.66;;;13.08
28305;BMP280;15569;42.652;23.040;2022-10-04T06:28:17;93346.47;;;13.10
28305;BMP280;15569;42.652;23.040;2022-10-04T06:31:17;93376.75;;;13.29
28305;BMP280;15569;42.652;23.040;2022-10-04T06:36:49;93378.72;;;13.42
28305;BMP280;15569;42.652;23.040;2022-10-04T06:48:33;93393.81;;;13.75
28305;BMP280;15569;42.652;23.040;2022-10-04T06:50:41;93394.72;;;13.34
28305;BMP280;15569;42.652;23.040;2022-10-04T06:53:17;93387.97;;;13.35
28305;BMP280;15569;42.652;23.040;2022-10-04T07:01:34;93391.38;;;13.07
28305;BMP280;15569;42.652;23.040;2022-10-04T07:07:10;93378.88;;;13.02
28305;BMP280;15569;42.652;23.040;2022-10-04T07:10:00;93388.28;;;13.28
28305;BMP280;15569;42.652;23.040;2022-10-04T07:12:28;93399.31;;;12.74
28305;BMP280;15569;42.652;23.040;2022-10-04T07:14:57;93389.34;;;12.78
28305;BMP280;15569;42.652;23.040;2022-10-04T07:17:25;93400.59;;;13.00
28305;BMP280;15569;42.652;23.040;2022-10-04T07:19:54;93394.91;;;13.09
28305;BMP280;15569;42.652;23.040;2022-10-04T07:22:35;93403.22;;;13.11
28305;BMP280;15569;42.652;23.040;2022-10-04T07:27:52;93405.38;;;13.28
28305;BMP280;15569;42.652;23.040;2022-10-04T07:31:00;93408.00;;;13.56
28305;BMP280;15569;42.652;23.040;2022-10-04T07:33:30;93411.81;;;13.35
28305;BMP280;15569;42.652;23.040;2022-10-04T07:36:09;93414.97;;;13.29
28305;BMP280;15569;42.652;23.040;2022-10-04T07:38:41;93410.31;;;12.89
28305;BMP280;15569;42.652;23.040;2022-10-04T07:44:14;93418.38;;;13.01
28305;BMP280;15569;42.652;23.040;2022-10-04T07:49:25;93429.38;;;13.16
28305;BMP280;15569;42.652;23.040;2022-10-04T07:54:39;93417.31;;;13.21
28305;BMP280;15569;42.652;23.040;2022-10-04T07:57:11;93425.09;;;12.84
28305;BMP280;15569;42.652;23.040;2022-10-04T07:59:51;93424.66;;;13.32
28305;BMP280;15569;42.652;23.040;2022-10-04T08:10:22;93414.06;;;13.70
28305;BMP280;15569;42.652;23.040;2022-10-04T08:13:00;93407.44;;;13.43
28305;BMP280;15569;42.652;23.040;2022-10-04T08:15:36;93406.63;;;13.41
28305;BMP280;15569;42.652;23.040;2022-10-04T08:18:35;93405.69;;;13.50
28305;BMP280;15569;42.652;23.040;2022-10-04T08:21:06;93418.59;;;13.34
28305;BMP280;15569;42.652;23.040;2022-10-04T08:40:34;93423.13;;;14.03
28305;BMP280;15569;42.652;23.040;2022-10-04T08:45:43;93428.53;;;14.50
28305;BMP280;15569;42.652;23.040;2022-10-04T09:08:37;93427.63;;;13.52
28305;BMP280;15569;42.652;23.040;2022-10-04T09:14:08;93425.81;;;14.50
28305;BMP280;15569;42.652;23.040;2022-10-04T09:16:45;93418.25;;;14.66
28305;BMP280;15569;42.652;23.040;2022-10-04T09:24:28;93412.19;;;14.52
28305;BMP280;15569;42.652;23.040;2022-10-04T09:30:00;93424.84;;;14.77
28305;BMP280;15569;42.652;23.040;2022-10-04T09:43:17;93434.03;;;14.34
28305;BMP280;15569;42.652;23.040;2022-10-04T09:51:21;93441.41;;;14.63
28305;BMP280;15569;42.652;23.040;2022-10-04T09:54:13;93426.38;;;14.97
28305;BMP280;15569;42.652;23.040;2022-10-04T09:57:35;93449.00;;;13.87
28305;BMP280;15569;42.652;23.040;2022-10-04T10:08:47;93431.09;;;14.46
28305;BMP280;15569;42.652;23.040;2022-10-04T10:12:12;93425.88;;;14.52
28305;BMP280;15569;42.652;23.040;2022-10-04T10:17:57;93427.22;;;14.84
28305;BMP280;15569;42.652;23.040;2022-10-04T10:44:59;93430.31;;;16.59
28305;BMP280;15569;42.652;23.040;2022-10-04T10:47:42;93448.41;;;16.27
28305;BMP280;15569;42.652;23.040;2022-10-04T11:04:14;93427.97;;;16.92
28305;BMP280;15569;42.652;23.040;2022-10-04T11:15:48;93435.59;;;16.13
28305;BMP280;15569;42.652;23.040;2022-10-04T11:48:23;93446.59;;;18.87
28305;BMP280;15569;42.652;23.040;2022-10-04T11:51:06;93438.56;;;19.24
28305;BMP280;15569;42.652;23.040;2022-10-04T11:56:44;93452.94;;;20.18
28305;BMP280;15569;42.652;23.040;2022-10-04T11:59:34;93441.19;;;18.91
28305;BMP280;15569;42.652;23.040;2022-10-04T12:02:39;93451.34;;;18.31
28305;BMP280;15569;42.652;23.040;2022-10-04T12:05:26;93445.00;;;18.01
28305;BMP280;15569;42.652;23.040;2022-10-04T12:10:38;93439.34;;;19.61
28305;BMP280;15569;42.652;23.040;2022-10-04T12:16:14;93444.75;;;18.42
28305;BMP280;15569;42.652;23.040;2022-10-04T12:19:12;93432.28;;;20.21
28305;BMP280;15569;42.652;23.040;2022-10-04T12:22:04;93443.00;;;19.69
28305;BMP280;15569;42.652;23.040;2022-10-04T12:25:48;93430.16;;;19.50
28305;BMP280;15569;42.652;23.040;2022-10-04T12:30:22;93443.19;;;20.11
28305;BMP280;15569;42.652;23.040;2022-10-04T12:51:42;93444.53;;;18.60
28305;BMP280;15569;42.652;23.040;2022-10-04T12:55:01;93449.41;;;17.63
28305;BMP280;15569;42.652;23.040;2022-10-04T12:57:40;93458.97;;;18.09
28305;BMP280;15569;42.652;23.040;2022-10-04T13:00:23;93454.84;;;18.08
28305;BMP280;15569;42.652;23.040;2022-10-04T13:02:56;93447.25;;;19.43
28305;BMP280;15569;42.652;23.040;2022-10-04T13:08:41;93454.94;;;21.34
28305;BMP280;15569;42.652;23.040;2022-10-04T13:14:18;93450.34;;;21.51
28305;BMP280;15569;42.652;23.040;2022-10-04T13:28:22;93458.25;;;24.44
28305;BMP280;15569;42.652;23.040;2022-10-04T13:31:03;93450.50;;;21.63
28305;BMP280;15569;42.652;23.040;2022-10-04T13:36:36;93456.09;;;21.19
28305;BMP280;15569;42.652;23.040;2022-10-04T13:39:12;93450.97;;;21.00
28305;BMP280;15569;42.652;23.040;2022-10-04T13:44:34;93462.63;;;21.40
28305;BMP280;15569;42.652;23.040;2022-10-04T14:10:26;93486.47;;;18.07
28305;BMP280;15569;42.652;23.040;2022-10-04T14:25:06;93504.16;;;16.13
28305;BMP280;15569;42.652;23.040;2022-10-04T14:54:09;93519.34;;;17.14
28305;BMP280;15569;42.652;23.040;2022-10-04T14:56:57;93526.03;;;16.68
28305;BMP280;15569;42.652;23.040;2022-10-04T15:07:43;93509.53;;;15.74
28305;BMP280;15569;42.652;23.040;2022-10-04T15:13:02;93521.19;;;15.75
28305;BMP280;15569;42.652;23.040;2022-10-04T15:21:50;93542.81;;;16.02
28305;BMP280;15569;42.652;23.040;2022-10-04T15:29:32;93535.91;;;16.97
28305;BMP280;15569;42.652;23.040;2022-10-04T15:38:00;93554.88;;;15.95
28305;BMP280;15569;42.652;23.040;2022-10-04T15:43:41;93555.19;;;15.68
28305;BMP280;15569;42.652;23.040;2022-10-04T15:49:03;93570.16;;;15.65
28305;BMP280;15569;42.652;23.040;2022-10-04T15:57:02;93572.13;;;15.29
28305;BMP280;15569;42.652;23.040;2022-10-04T16:04:58;93585.75;;;15.27
28305;BMP280;15569;42.652;23.040;2022-10-04T16:15:16;93598.72;;;14.93
28305;BMP280;15569;42.652;23.040;2022-10-04T16:20:49;93603.97;;;14.89
28305;BMP280;15569;42.652;23.040;2022-10-04T16:23:22;93609.47;;;14.58
28305;BMP280;15569;42.652;23.040;2022-10-04T16:26:11;93608.53;;;14.38
28305;BMP280;15569;42.652;23.040;2022-10-04T16:28:54;93610.56;;;14.37
28305;BMP280;15569;42.652;23.040;2022-10-04T16:39:37;93623.84;;;14.14
28305;BMP280;15569;42.652;23.040;2022-10-04T16:42:28;93626.69;;;14.16
28305;BMP280;15569;42.652;23.040;2022-10-04T16:49:58;93637.56;;;14.00
28305;BMP280;15569;42.652;23.040;2022-10-04T16:52:49;93641.94;;;13.92
28305;BMP280;15569;42.652;23.040;2022-10-04T17:23:24;93672.38;;;13.43
28305;BMP280;15569;42.652;23.040;2022-10-04T17:26:05;93678.13;;;13.49
28305;BMP280;15569;42.652;23.040;2022-10-04T17:34:34;93685.00;;;13.37
28305;BMP280;15569;42.652;23.040;2022-10-04T17:48:13;93687.13;;;13.38
28305;BMP280;15569;42.652;23.040;2022-10-04T17:54:26;93705.81;;;13.30
28305;BMP280;15569;42.652;23.040;2022-10-04T17:57:17;93702.09;;;13.24
28305;BMP280;15569;42.652;23.040;2022-10-04T17:59:55;93713.91;;;13.28
28305;BMP280;15569;42.652;23.040;2022-10-04T18:05:47;93718.34;;;13.22
28305;BMP280;15569;42.652;23.040;2022-10-04T18:08:27;93711.75;;;13.13
28305;BMP280;15569;42.652;23.040;2022-10-04T18:11:00;93713.84;;;13.01
28305;BMP280;15569;42.652;23.040;2022-10-04T18:13:29;93720.97;;;12.81
28305;BMP280;15569;42.652;23.040;2022-10-04T18:15:57;93725.94;;;12.85
28305;BMP280;15569;42.652;23.040;2022-10-04T18:18:36;93721.06;;;12.83
28305;BMP280;15569;42.652;23.040;2022-10-04T18:23:33;93727.84;;;12.57
28305;BMP280;15569;42.652;23.040;2022-10-04T18:26:10;93738.66;;;12.55
28305;BMP280;15569;42.652;23.040;2022-10-04T18:28:36;93738.84;;;12.59
28305;BMP280;15569;42.652;23.040;2022-10-04T18:31:37;93747.38;;;12.65
28305;BMP280;15569;42.652;23.040;2022-10-04T18:34:17;93745.31;;;12.52
28305;BMP280;15569;42.652;23.040;2022-10-04T18:37:03;93748.06;;;12.40
28305;BMP280;15569;42.652;23.040;2022-10-04T18:39:32;93749.41;;;12.28
28305;BMP280;15569;42.652;23.040;2022-10-04T18:42:18;93752.69;;;12.38
28305;BMP280;15569;42.652;23.040;2022-10-04T18:44:58;93754.84;;;12.28
28305;BMP280;15569;42.652;23.040;2022-10-04T18:47:37;93751.66;;;12.31
28305;BMP280;15569;42.652;23.040;2022-10-04T18:50:22;93752.84;;;12.28
28305;BMP280;15569;42.652;23.040;2022-10-04T18:55:57;93764.84;;;12.12
28305;BMP280;15569;42.652;23.040;2022-10-04T19:01:54;93765.81;;;12.05
28305;BMP280;15569;42.652;23.040;2022-10-04T19:04:43;93757.44;;;11.89
28305;BMP280;15569;42.652;23.040;2022-10-04T19:07:13;93750.75;;;12.04
28305;BMP280;15569;42.652;23.040;2022-10-04T19:09:51;93754.41;;;12.08
28305;BMP280;15569;42.652;23.040;2022-10-04T19:17:54;93767.97;;;11.71
28305;BMP280;15569;42.652;23.040;2022-10-04T19:20:37;93759.19;;;11.61
28305;BMP280;15569;42.652;23.040;2022-10-04T19:23:24;93760.25;;;11.56
28305;BMP280;15569;42.652;23.040;2022-10-04T19:25:59;93774.72;;;11.70
28305;BMP280;15569;42.652;23.040;2022-10-04T19:28:29;93772.34;;;11.65
28305;BMP280;15569;42.652;23.040;2022-10-04T19:47:29;93782.50;;;11.41
28305;BMP280;15569;42.652;23.040;2022-10-04T19:53:01;93784.97;;;11.26
28305;BMP280;15569;42.652;23.040;2022-10-04T20:00:56;93786.88;;;11.23
28305;BMP280;15569;42.652;23.040;2022-10-04T20:03:22;93785.19;;;11.18
28305;BMP280;15569;42.652;23.040;2022-10-04T20:05:49;93783.66;;;11.15
28305;BMP280;15569;42.652;23.040;2022-10-04T20:21:48;93801.06;;;10.89
28305;BMP280;15569;42.652;23.040;2022-10-04T20:27:04;93800.38;;;10.88
28305;BMP280;15569;42.652;23.040;2022-10-04T20:35:00;93812.81;;;10.70
28305;BMP280;15569;42.652;23.040;2022-10-04T20:45:46;93814.63;;;10.56
28305;BMP280;15569;42.652;23.040;2022-10-04T20:48:22;93825.59;;;10.68
28305;BMP280;15569;42.652;23.040;2022-10-04T20:50:49;93824.41;;;10.50
28305;BMP280;15569;42.652;23.040;2022-10-04T20:55:43;93813.75;;;10.11
28305;BMP280;15569;42.652;23.040;2022-10-04T20:58:36;93825.22;;;10.31
28305;BMP280;15569;42.652;23.040;2022-10-04T21:03:40;93823.06;;;10.29
28305;BMP280;15569;42.652;23.040;2022-10-04T21:06:09;93824.19;;;10.36
28305;BMP280;15569;42.652;23.040;2022-10-04T21:08:37;93823.88;;;10.42
28305;BMP280;15569;42.652;23.040;2022-10-04T21:11:10;93831.16;;;10.18
28305;BMP280;15569;42.652;23.040;2022-10-04T21:13:59;93833.34;;;10.10
28305;BMP280;15569;42.652;23.040;2022-10-04T21:16:41;93839.63;;;10.12
28305;BMP280;15569;42.652;23.040;2022-10-04T21:19:39;93833.47;;;10.12
28305;BMP280;15569;42.652;23.040;2022-10-04T21:24:42;93822.13;;;9.94
28305;BMP280;15569;42.652;23.040;2022-10-04T21:27:37;93841.22;;;10.06
28305;BMP280;15569;42.652;23.040;2022-10-04T21:30:12;93835.72;;;9.94
28305;BMP280;15569;42.652;23.040;2022-10-04T21:32:38;93837.13;;;9.95
28305;BMP280;15569;42.652;23.040;2022-10-04T21:35:05;93835.66;;;10.04
28305;BMP280;15569;42.652;23.040;2022-10-04T21:37:31;93844.56;;;9.95
28305;BMP280;15569;42.652;23.040;2022-10-04T21:39:57;93843.19;;;9.84
28305;BMP280;15569;42.652;23.040;2022-10-04T21:42:23;93840.81;;;10.00
28305;BMP280;15569;42.652;23.040;2022-10-04T21:44:48;93834.06;;;9.70
28305;BMP280;15569;42.652;23.040;2022-10-04T21:47:14;93847.16;;;9.93
28305;BMP280;15569;42.652;23.040;2022-10-04T21:49:40;93844.38;;;9.72
28305;BMP280;15569;42.652;23.040;2022-10-04T21:52:06;93838.78;;;9.70
28305;BMP280;15569;42.652;23.040;2022-10-04T21:54:31;93833.88;;;9.87
28305;BMP280;15569;42.652;23.040;2022-10-04T21:56:57;93832.34;;;9.75
28305;BMP280;15569;42.652;23.040;2022-10-04T21:59:22;93834.41;;;9.55
28305;BMP280;15569;42.652;23.040;2022-10-04T22:01:48;93827.22;;;9.69
28305;BMP280;15569;42.652;23.040;2022-10-04T22:04:13;93838.91;;;9.81
28305;BMP280;15569;42.652;23.040;2022-10-04T22:06:39;93835.94;;;9.77
28305;BMP280;15569;42.652;23.040;2022-10-04T22:09:05;93835.78;;;9.75
28305;BMP280;15569;42.652;23.040;2022-10-04T22:11:30;93847.75;;;9.82
28305;BMP280;15569;42.652;23.040;2022-10-04T22:13:56;93848.63;;;9.84
28305;BMP280;15569;42.652;23.040;2022-10-04T22:16:21;93854.06;;;9.84
28305;BMP280;15569;42.652;23.040;2022-10-04T22:18:47;93854.47;;;9.81
28305;BMP280;15569;42.652;23.040;2022-10-04T22:21:12;93855.53;;;9.66
28305;BMP280;15569;42.652;23.040;2022-10-04T22:23:40;93865.13;;;9.58
28305;BMP280;15569;42.652;23.040;2022-10-04T22:26:14;93861.84;;;9.59
28305;BMP280;15569;42.652;23.040;2022-10-04T22:28:46;93865.16;;;9.48
28305;BMP280;15569;42.652;23.040;2022-10-04T22:31:16;93866.41;;;9.57
28305;BMP280;15569;42.652;23.040;2022-10-04T22:33:43;93870.09;;;9.61
28305;BMP280;15569;42.652;23.040;2022-10-04T22:36:20;93864.69;;;9.51
28305;BMP280;15569;42.652;23.040;2022-10-04T22:38:56;93864.72;;;9.42
28305;BMP280;15569;42.652;23.040;2022-10-04T22:41:30;93865.88;;;9.29
28305;BMP280;15569;42.652;23.040;2022-10-04T22:43:58;93858.44;;;9.39
28305;BMP280;15569;42.652;23.040;2022-10-04T22:46:37;93857.59;;;9.27
28305;BMP280;15569;42.652;23.040;2022-10-04T22:49:12;93862.31;;;9.36
28305;BMP280;15569;42.652;23.040;2022-10-04T22:51:39;93855.56;;;9.37
28305;BMP280;15569;42.652;23.040;2022-10-04T22:54:14;93854.44;;;9.40
28305;BMP280;15569;42.652;23.040;2022-10-04T22:56:40;93851.44;;;9.36
28305;BMP280;15569;42.652;23.040;2022-10-04T22:59:10;93853.88;;;9.32
28305;BMP280;15569;42.652;23.040;2022-10-04T23:01:37;93858.88;;;9.36
28305;BMP280;15569;42.652;23.040;2022-10-04T23:04:05;93857.00;;;9.19
28305;BMP280;15569;42.652;23.040;2022-10-04T23:06:35;93859.19;;;9.21
28305;BMP280;15569;42.652;23.040;2022-10-04T23:09:00;93857.44;;;9.25
28305;BMP280;15569;42.652;23.040;2022-10-04T23:11:29;93859.31;;;9.32
28305;BMP280;15569;42.652;23.040;2022-10-04T23:13:56;93858.16;;;9.35
28305;BMP280;15569;42.652;23.040;2022-10-04T23:16:22;93852.16;;;9.08
28305;BMP280;15569;42.652;23.040;2022-10-04T23:18:48;93858.44;;;9.01
28305;BMP280;15569;42.652;23.040;2022-10-04T23:21:23;93864.59;;;9.21
28305;BMP280;15569;42.652;23.040;2022-10-04T23:23:50;93858.44;;;9.11
28305;BMP280;15569;42.652;23.040;2022-10-04T23:26:24;93865.31;;;9.12
28305;BMP280;15569;42.652;23.040;2022-10-04T23:28:51;93866.88;;;9.05
28305;BMP280;15569;42.652;23.040;2022-10-04T23:31:25;93871.56;;;9.14
28305;BMP280;15569;42.652;23.040;2022-10-04T23:33:52;93871.03;;;9.16
28305;BMP280;15569;42.652;23.040;2022-10-04T23:36:19;93864.75;;;9.23
28305;BMP280;15569;42.652;23.040;2022-10-04T23:38:50;93862.59;;;9.12
28305;BMP280;15569;42.652;23.040;2022-10-04T23:41:18;93873.16;;;9.08
28305;BMP280;15569;42.652;23.040;2022-10-04T23:43:45;93869.16;;;9.09
28305;BMP280;15569;42.652;23.040;2022-10-04T23:46:14;93874.16;;;8.93
28305;BMP280;15569;42.652;23.040;2022-10-04T23:48:40;93882.44;;;8.95
28305;BMP280;15569;42.652;23.040;2022-10-04T23:51:11;93880.00;;;8.80
28305;BMP280;15569;42.652;23.040;2022-10-04T23:53:39;93872.44;;;8.88
28305;BMP280;15569;42.652;23.040;2022-10-04T23:56:14;93861.44;;;8.76
28305;BMP280;15569;42.652;23.040;2022-10-04T23:58:40;93878.28;;;8.85
